createdAt,value
2023-03-16T00:00:00.000Z,2.0
2023-03-16T00:00:15.000Z,2.0
2023-03-16T00:00:30.000Z,2.0
2023-03-16T00:00:45.000Z,2.0
2023-03-16T00:01:00.000Z,2.0999999046325684
2023-03-16T00:01:15.000Z,2.0
2023-03-16T00:01:30.000Z,2.0
2023-03-16T00:01:45.000Z,2.0999999046325684
2023-03-16T00:02:00.000Z,2.0999999046325684
2023-03-16T00:02:15.000Z,2.0999999046325684
2023-03-16T00:02:30.000Z,2.0999999046325684
2023-03-16T00:02:45.000Z,2.0999999046325684
2023-03-16T00:03:00.000Z,2.0999999046325684
2023-03-16T00:03:15.000Z,2.0999999046325684
2023-03-16T00:03:30.000Z,2.0999999046325684
2023-03-16T00:03:45.000Z,2.0999999046325684
2023-03-16T00:04:00.000Z,2.0999999046325684
2023-03-16T00:04:15.000Z,2.0999999046325684
2023-03-16T00:04:30.000Z,2.0999999046325684
2023-03-16T00:04:45.000Z,2.0999999046325684
2023-03-16T00:05:00.000Z,2.0
2023-03-16T00:05:15.000Z,2.0999999046325684
2023-03-16T00:05:30.000Z,2.0999999046325684
2023-03-16T00:05:45.000Z,2.0999999046325684
2023-03-16T00:05:59.000Z,2.0999999046325684
2023-03-16T00:06:15.000Z,2.0999999046325684
2023-03-16T00:06:30.000Z,2.0999999046325684
2023-03-16T00:06:45.000Z,2.0999999046325684
2023-03-16T00:07:00.000Z,2.0999999046325684
2023-03-16T00:07:15.000Z,2.0999999046325684
2023-03-16T00:07:30.000Z,2.0999999046325684
2023-03-16T00:07:45.000Z,2.0999999046325684
2023-03-16T00:08:00.000Z,2.0999999046325684
2023-03-16T00:08:15.000Z,2.0999999046325684
2023-03-16T00:08:30.000Z,2.0999999046325684
2023-03-16T00:08:45.000Z,2.0999999046325684
2023-03-16T00:09:00.000Z,2.0999999046325684
2023-03-16T00:09:15.000Z,2.0999999046325684
2023-03-16T00:09:30.000Z,2.200000047683716
2023-03-16T00:09:45.000Z,2.200000047683716
2023-03-16T00:10:00.000Z,2.200000047683716
2023-03-16T00:10:15.000Z,2.200000047683716
2023-03-16T00:10:30.000Z,2.200000047683716
2023-03-16T00:10:45.000Z,2.200000047683716
2023-03-16T00:11:00.000Z,2.200000047683716
2023-03-16T00:11:15.000Z,2.200000047683716
2023-03-16T00:11:30.000Z,2.200000047683716
2023-03-16T00:11:45.000Z,2.200000047683716
2023-03-16T00:12:00.000Z,2.200000047683716
2023-03-16T00:12:15.000Z,2.200000047683716
2023-03-16T00:12:30.000Z,2.200000047683716
2023-03-16T00:12:45.000Z,2.200000047683716
2023-03-16T00:13:00.000Z,2.200000047683716
2023-03-16T00:13:14.000Z,2.200000047683716
2023-03-16T00:13:30.000Z,2.200000047683716
2023-03-16T00:13:45.000Z,2.200000047683716
2023-03-16T00:14:00.000Z,2.200000047683716
2023-03-16T00:14:15.000Z,2.200000047683716
2023-03-16T00:14:30.000Z,2.200000047683716
2023-03-16T00:14:45.000Z,2.0999999046325684
2023-03-16T00:15:00.000Z,2.0999999046325684
2023-03-16T00:15:15.000Z,2.200000047683716
2023-03-16T00:15:30.000Z,2.0999999046325684
2023-03-16T00:15:45.000Z,2.0999999046325684
2023-03-16T00:16:00.000Z,2.0999999046325684
2023-03-16T00:16:15.000Z,2.0999999046325684
2023-03-16T00:16:30.000Z,2.0999999046325684
2023-03-16T00:16:45.000Z,2.0999999046325684
2023-03-16T00:17:00.000Z,2.0999999046325684
2023-03-16T00:17:15.000Z,2.0999999046325684
2023-03-16T00:17:30.000Z,2.0999999046325684
2023-03-16T00:17:45.000Z,2.0999999046325684
2023-03-16T00:18:00.000Z,2.0999999046325684
2023-03-16T00:18:15.000Z,2.0999999046325684
2023-03-16T00:18:30.000Z,2.0999999046325684
2023-03-16T00:18:45.000Z,2.0999999046325684
2023-03-16T00:19:00.000Z,2.0
2023-03-16T00:19:15.000Z,2.0
2023-03-16T00:19:30.000Z,2.0
2023-03-16T00:19:45.000Z,2.0
2023-03-16T00:20:00.000Z,2.0
2023-03-16T00:20:15.000Z,2.0
2023-03-16T00:20:30.000Z,2.0
2023-03-16T00:20:45.000Z,2.0
2023-03-16T00:21:00.000Z,2.0
2023-03-16T00:21:15.000Z,2.0
2023-03-16T00:21:30.000Z,2.0
2023-03-16T00:21:45.000Z,1.899999976158142
2023-03-16T00:22:00.000Z,2.0
2023-03-16T00:22:15.000Z,2.0
2023-03-16T00:22:30.000Z,2.0
2023-03-16T00:22:45.000Z,1.899999976158142
2023-03-16T00:23:00.000Z,1.899999976158142
2023-03-16T00:23:15.000Z,1.899999976158142
2023-03-16T00:23:30.000Z,1.899999976158142
2023-03-16T00:23:45.000Z,1.899999976158142
2023-03-16T00:24:00.000Z,1.899999976158142
2023-03-16T00:24:15.000Z,1.899999976158142
2023-03-16T00:24:30.000Z,1.899999976158142
2023-03-16T00:24:45.000Z,1.899999976158142
2023-03-16T00:25:00.000Z,1.899999976158142
2023-03-16T00:25:15.000Z,1.899999976158142
2023-03-16T00:25:30.000Z,1.899999976158142
2023-03-16T00:25:45.000Z,1.899999976158142
2023-03-16T00:26:00.000Z,1.899999976158142
2023-03-16T00:26:15.000Z,1.7999999523162842
2023-03-16T00:26:30.000Z,1.7999999523162842
2023-03-16T00:26:45.000Z,1.899999976158142
2023-03-16T00:27:00.000Z,1.899999976158142
2023-03-16T00:27:15.000Z,1.899999976158142
2023-03-16T00:27:30.000Z,1.899999976158142
2023-03-16T00:27:45.000Z,1.899999976158142
2023-03-16T00:27:59.000Z,2.0
2023-03-16T00:28:15.000Z,1.899999976158142
2023-03-16T00:28:30.000Z,1.899999976158142
2023-03-16T00:28:45.000Z,1.899999976158142
2023-03-16T00:29:00.000Z,1.899999976158142
2023-03-16T00:29:15.000Z,1.899999976158142
2023-03-16T00:29:30.000Z,1.899999976158142
2023-03-16T00:29:45.000Z,1.899999976158142
2023-03-16T00:30:00.000Z,2.0
2023-03-16T00:30:15.000Z,1.899999976158142
2023-03-16T00:30:30.000Z,1.899999976158142
2023-03-16T00:30:45.000Z,1.899999976158142
2023-03-16T00:31:00.000Z,1.899999976158142
2023-03-16T00:31:15.000Z,1.899999976158142
2023-03-16T00:31:30.000Z,1.899999976158142
2023-03-16T00:31:45.000Z,1.899999976158142
2023-03-16T00:32:00.000Z,1.899999976158142
2023-03-16T00:32:15.000Z,1.899999976158142
2023-03-16T00:32:30.000Z,1.899999976158142
2023-03-16T00:32:45.000Z,1.899999976158142
2023-03-16T00:33:00.000Z,2.0
2023-03-16T00:33:15.000Z,1.899999976158142
2023-03-16T00:33:30.000Z,1.899999976158142
2023-03-16T00:33:45.000Z,2.0
2023-03-16T00:34:00.000Z,1.899999976158142
2023-03-16T00:34:15.000Z,1.899999976158142
2023-03-16T00:34:30.000Z,2.0
2023-03-16T00:34:45.000Z,1.899999976158142
2023-03-16T00:35:00.000Z,1.899999976158142
2023-03-16T00:35:15.000Z,1.899999976158142
2023-03-16T00:35:30.000Z,1.899999976158142
2023-03-16T00:35:45.000Z,1.899999976158142
2023-03-16T00:36:00.000Z,1.899999976158142
2023-03-16T00:36:15.000Z,1.899999976158142
2023-03-16T00:36:30.000Z,1.899999976158142
2023-03-16T00:36:45.000Z,1.899999976158142
2023-03-16T00:37:00.000Z,1.899999976158142
2023-03-16T00:37:15.000Z,1.899999976158142
2023-03-16T00:37:30.000Z,1.899999976158142
2023-03-16T00:37:45.000Z,1.899999976158142
2023-03-16T00:38:00.000Z,1.899999976158142
2023-03-16T00:38:15.000Z,1.899999976158142
2023-03-16T00:38:30.000Z,1.899999976158142
2023-03-16T00:38:45.000Z,1.899999976158142
2023-03-16T00:39:00.000Z,1.899999976158142
2023-03-16T00:39:15.000Z,1.899999976158142
2023-03-16T00:39:30.000Z,2.0
2023-03-16T00:39:45.000Z,2.0
2023-03-16T00:40:00.000Z,2.0
2023-03-16T00:40:15.000Z,2.0
2023-03-16T00:40:30.000Z,2.0
2023-03-16T00:40:45.000Z,2.0
2023-03-16T00:41:00.000Z,2.0
2023-03-16T00:41:15.000Z,2.0
2023-03-16T00:41:30.000Z,2.0
2023-03-16T00:41:45.000Z,2.0
2023-03-16T00:42:00.000Z,2.0
2023-03-16T00:42:15.000Z,2.0
2023-03-16T00:42:30.000Z,2.0
2023-03-16T00:42:44.000Z,2.0
2023-03-16T00:43:00.000Z,2.0
2023-03-16T00:43:15.000Z,2.0
2023-03-16T00:43:30.000Z,1.899999976158142
2023-03-16T00:43:45.000Z,2.0
2023-03-16T00:44:00.000Z,1.899999976158142
2023-03-16T00:44:15.000Z,2.0
2023-03-16T00:44:30.000Z,1.899999976158142
2023-03-16T00:44:45.000Z,1.899999976158142
2023-03-16T00:45:00.000Z,2.0
2023-03-16T00:45:15.000Z,2.0
2023-03-16T00:45:30.000Z,2.0
2023-03-16T00:45:45.000Z,2.0
2023-03-16T00:46:00.000Z,2.0
2023-03-16T00:46:15.000Z,2.0
2023-03-16T00:46:30.000Z,2.0
2023-03-16T00:46:45.000Z,2.0
2023-03-16T00:47:00.000Z,2.0999999046325684
2023-03-16T00:47:15.000Z,2.0999999046325684
2023-03-16T00:47:30.000Z,2.200000047683716
2023-03-16T00:47:45.000Z,2.299999952316284
2023-03-16T00:48:00.000Z,2.299999952316284
2023-03-16T00:48:15.000Z,2.4000000953674316
2023-03-16T00:48:30.000Z,2.4000000953674316
2023-03-16T00:48:45.000Z,2.4000000953674316
2023-03-16T00:49:00.000Z,2.4000000953674316
2023-03-16T00:49:15.000Z,2.4000000953674316
2023-03-16T00:49:30.000Z,2.4000000953674316
2023-03-16T00:49:45.000Z,2.4000000953674316
2023-03-16T00:49:59.000Z,2.4000000953674316
2023-03-16T00:50:15.000Z,2.4000000953674316
2023-03-16T00:50:30.000Z,2.4000000953674316
2023-03-16T00:50:45.000Z,2.4000000953674316
2023-03-16T00:51:00.000Z,2.4000000953674316
2023-03-16T00:51:15.000Z,2.5
2023-03-16T00:51:30.000Z,2.5
2023-03-16T00:51:45.000Z,2.5
2023-03-16T00:52:00.000Z,2.5
2023-03-16T00:52:15.000Z,2.5
2023-03-16T00:52:30.000Z,2.5999999046325684
2023-03-16T00:52:45.000Z,2.700000047683716
2023-03-16T00:53:00.000Z,2.799999952316284
2023-03-16T00:53:15.000Z,2.9000000953674316
2023-03-16T00:53:30.000Z,2.9000000953674316
2023-03-16T00:53:45.000Z,2.9000000953674316
2023-03-16T00:54:00.000Z,3.0
2023-03-16T00:54:15.000Z,3.0
2023-03-16T00:54:30.000Z,3.0999999046325684
2023-03-16T00:54:45.000Z,3.200000047683716
2023-03-16T00:55:00.000Z,3.200000047683716
2023-03-16T00:55:15.000Z,3.299999952316284
2023-03-16T00:55:30.000Z,3.299999952316284
2023-03-16T00:55:45.000Z,3.4000000953674316
2023-03-16T00:56:00.000Z,3.4000000953674316
2023-03-16T00:56:15.000Z,3.4000000953674316
2023-03-16T00:56:30.000Z,3.4000000953674316
2023-03-16T00:56:45.000Z,3.4000000953674316
2023-03-16T00:57:00.000Z,3.4000000953674316
2023-03-16T00:57:14.000Z,3.4000000953674316
2023-03-16T00:57:30.000Z,3.4000000953674316
2023-03-16T00:57:45.000Z,3.4000000953674316
2023-03-16T00:58:00.000Z,3.4000000953674316
2023-03-16T00:58:15.000Z,3.4000000953674316
2023-03-16T00:58:30.000Z,3.4000000953674316
2023-03-16T00:58:45.000Z,3.4000000953674316
2023-03-16T00:59:00.000Z,3.5
2023-03-16T00:59:15.000Z,3.5
2023-03-16T00:59:30.000Z,3.5
2023-03-16T00:59:45.000Z,3.5
2023-03-16T01:00:00.000Z,3.5
2023-03-16T01:00:15.000Z,3.5
2023-03-16T01:00:30.000Z,3.5
2023-03-16T01:00:45.000Z,3.5
2023-03-16T01:01:00.000Z,3.5
2023-03-16T01:01:15.000Z,3.5999999046325684
2023-03-16T01:01:30.000Z,3.5999999046325684
2023-03-16T01:01:45.000Z,3.5999999046325684
2023-03-16T01:02:00.000Z,3.5999999046325684
2023-03-16T01:02:15.000Z,3.5999999046325684
2023-03-16T01:02:30.000Z,3.5999999046325684
2023-03-16T01:02:45.000Z,3.5999999046325684
2023-03-16T01:03:00.000Z,3.5999999046325684
2023-03-16T01:03:15.000Z,3.5999999046325684
2023-03-16T01:03:30.000Z,3.700000047683716
2023-03-16T01:03:45.000Z,3.5999999046325684
2023-03-16T01:04:00.000Z,3.700000047683716
2023-03-16T01:04:15.000Z,3.700000047683716
2023-03-16T01:04:30.000Z,3.700000047683716
2023-03-16T01:04:45.000Z,3.700000047683716
2023-03-16T01:05:00.000Z,3.700000047683716
2023-03-16T01:05:15.000Z,3.700000047683716
2023-03-16T01:05:30.000Z,3.700000047683716
2023-03-16T01:05:45.000Z,3.700000047683716
2023-03-16T01:06:00.000Z,3.700000047683716
2023-03-16T01:06:15.000Z,3.700000047683716
2023-03-16T01:06:30.000Z,3.700000047683716
2023-03-16T01:06:45.000Z,3.700000047683716
2023-03-16T01:07:00.000Z,3.700000047683716
2023-03-16T01:07:15.000Z,3.700000047683716
2023-03-16T01:07:30.000Z,3.700000047683716
2023-03-16T01:07:45.000Z,3.700000047683716
2023-03-16T01:08:00.000Z,3.700000047683716
2023-03-16T01:08:15.000Z,3.700000047683716
2023-03-16T01:08:30.000Z,3.799999952316284
2023-03-16T01:08:45.000Z,3.700000047683716
2023-03-16T01:09:00.000Z,3.700000047683716
2023-03-16T01:09:15.000Z,3.700000047683716
2023-03-16T01:09:30.000Z,3.700000047683716
2023-03-16T01:09:45.000Z,3.700000047683716
2023-03-16T01:10:00.000Z,3.700000047683716
2023-03-16T01:10:15.000Z,3.700000047683716
2023-03-16T01:10:30.000Z,3.700000047683716
2023-03-16T01:10:45.000Z,3.700000047683716
2023-03-16T01:11:00.000Z,3.700000047683716
2023-03-16T01:11:15.000Z,3.700000047683716
2023-03-16T01:11:29.000Z,3.700000047683716
2023-03-16T01:11:45.000Z,3.700000047683716
2023-03-16T01:12:00.000Z,3.799999952316284
2023-03-16T01:12:15.000Z,3.799999952316284
2023-03-16T01:12:30.000Z,3.799999952316284
2023-03-16T01:12:45.000Z,3.799999952316284
2023-03-16T01:13:00.000Z,3.799999952316284
2023-03-16T01:13:15.000Z,3.799999952316284
2023-03-16T01:13:30.000Z,3.799999952316284
2023-03-16T01:13:45.000Z,3.799999952316284
2023-03-16T01:14:00.000Z,3.799999952316284
2023-03-16T01:14:15.000Z,3.799999952316284
2023-03-16T01:14:30.000Z,3.799999952316284
2023-03-16T01:14:45.000Z,3.799999952316284
2023-03-16T01:15:00.000Z,3.9000000953674316
2023-03-16T01:15:15.000Z,3.9000000953674316
2023-03-16T01:15:30.000Z,3.9000000953674316
2023-03-16T01:15:45.000Z,3.9000000953674316
2023-03-16T01:16:00.000Z,3.9000000953674316
2023-03-16T01:16:15.000Z,3.9000000953674316
2023-03-16T01:16:30.000Z,3.9000000953674316
2023-03-16T01:16:45.000Z,3.799999952316284
2023-03-16T01:17:00.000Z,3.799999952316284
2023-03-16T01:17:15.000Z,3.799999952316284
2023-03-16T01:17:30.000Z,3.799999952316284
2023-03-16T01:17:45.000Z,3.700000047683716
2023-03-16T01:18:00.000Z,3.700000047683716
2023-03-16T01:18:15.000Z,3.5999999046325684
2023-03-16T01:18:29.000Z,3.5999999046325684
2023-03-16T01:18:45.000Z,3.5
2023-03-16T01:19:00.000Z,3.4000000953674316
2023-03-16T01:19:15.000Z,3.4000000953674316
2023-03-16T01:19:30.000Z,3.4000000953674316
2023-03-16T01:19:45.000Z,3.4000000953674316
2023-03-16T01:20:00.000Z,3.4000000953674316
2023-03-16T01:20:15.000Z,3.4000000953674316
2023-03-16T01:20:30.000Z,3.299999952316284
2023-03-16T01:20:45.000Z,3.299999952316284
2023-03-16T01:21:00.000Z,3.200000047683716
2023-03-16T01:21:15.000Z,3.200000047683716
2023-03-16T01:21:30.000Z,3.0999999046325684
2023-03-16T01:21:45.000Z,2.9000000953674316
2023-03-16T01:22:00.000Z,2.9000000953674316
2023-03-16T01:22:15.000Z,2.700000047683716
2023-03-16T01:22:30.000Z,2.700000047683716
2023-03-16T01:22:45.000Z,2.5999999046325684
2023-03-16T01:23:00.000Z,2.5999999046325684
2023-03-16T01:23:15.000Z,2.4000000953674316
2023-03-16T01:23:30.000Z,2.4000000953674316
2023-03-16T01:23:45.000Z,2.5
2023-03-16T01:24:00.000Z,2.4000000953674316
2023-03-16T01:24:15.000Z,2.5
2023-03-16T01:24:30.000Z,2.5
2023-03-16T01:24:45.000Z,2.5
2023-03-16T01:25:00.000Z,2.5999999046325684
2023-03-16T01:25:15.000Z,2.5999999046325684
2023-03-16T01:25:29.000Z,2.4000000953674316
2023-03-16T01:25:45.000Z,2.4000000953674316
2023-03-16T01:26:00.000Z,2.4000000953674316
2023-03-16T01:26:15.000Z,2.4000000953674316
2023-03-16T01:26:30.000Z,2.4000000953674316
2023-03-16T01:26:45.000Z,2.4000000953674316
2023-03-16T01:27:00.000Z,2.4000000953674316
2023-03-16T01:27:15.000Z,2.4000000953674316
2023-03-16T01:27:30.000Z,2.4000000953674316
2023-03-16T01:27:45.000Z,2.4000000953674316
2023-03-16T01:28:00.000Z,2.4000000953674316
2023-03-16T01:28:15.000Z,2.4000000953674316
2023-03-16T01:28:30.000Z,2.4000000953674316
2023-03-16T01:28:45.000Z,2.4000000953674316
2023-03-16T01:29:00.000Z,2.4000000953674316
2023-03-16T01:29:15.000Z,2.4000000953674316
2023-03-16T01:29:30.000Z,2.4000000953674316
2023-03-16T01:29:45.000Z,2.4000000953674316
2023-03-16T01:30:00.000Z,2.4000000953674316
2023-03-16T01:30:15.000Z,2.4000000953674316
2023-03-16T01:30:30.000Z,2.4000000953674316
2023-03-16T01:30:45.000Z,2.4000000953674316
2023-03-16T01:31:00.000Z,2.4000000953674316
2023-03-16T01:31:15.000Z,2.4000000953674316
2023-03-16T01:31:30.000Z,2.4000000953674316
2023-03-16T01:31:45.000Z,2.4000000953674316
2023-03-16T01:32:00.000Z,2.4000000953674316
2023-03-16T01:32:15.000Z,2.4000000953674316
2023-03-16T01:32:30.000Z,2.4000000953674316
2023-03-16T01:32:44.000Z,2.4000000953674316
2023-03-16T01:33:00.000Z,2.4000000953674316
2023-03-16T01:33:15.000Z,2.4000000953674316
2023-03-16T01:33:30.000Z,2.4000000953674316
2023-03-16T01:33:45.000Z,2.4000000953674316
2023-03-16T01:34:00.000Z,2.299999952316284
2023-03-16T01:34:15.000Z,2.299999952316284
2023-03-16T01:34:30.000Z,2.299999952316284
2023-03-16T01:34:45.000Z,2.299999952316284
2023-03-16T01:35:00.000Z,2.299999952316284
2023-03-16T01:35:15.000Z,2.299999952316284
2023-03-16T01:35:30.000Z,2.200000047683716
2023-03-16T01:35:45.000Z,2.200000047683716
2023-03-16T01:36:00.000Z,2.200000047683716
2023-03-16T01:36:15.000Z,2.200000047683716
2023-03-16T01:36:30.000Z,2.0999999046325684
2023-03-16T01:36:45.000Z,2.0999999046325684
2023-03-16T01:37:00.000Z,2.0999999046325684
2023-03-16T01:37:15.000Z,2.0999999046325684
2023-03-16T01:37:30.000Z,2.0999999046325684
2023-03-16T01:37:45.000Z,2.0999999046325684
2023-03-16T01:38:00.000Z,2.0
2023-03-16T01:38:15.000Z,2.0999999046325684
2023-03-16T01:38:30.000Z,2.0
2023-03-16T01:38:45.000Z,2.0
2023-03-16T01:39:00.000Z,2.0
2023-03-16T01:39:15.000Z,2.0
2023-03-16T01:39:30.000Z,1.899999976158142
2023-03-16T01:39:45.000Z,1.899999976158142
2023-03-16T01:39:59.000Z,1.7999999523162842
2023-03-16T01:40:15.000Z,1.7999999523162842
2023-03-16T01:40:30.000Z,1.7999999523162842
2023-03-16T01:40:45.000Z,1.899999976158142
2023-03-16T01:41:00.000Z,1.899999976158142
2023-03-16T01:41:15.000Z,1.7999999523162842
2023-03-16T01:41:30.000Z,1.7999999523162842
2023-03-16T01:41:45.000Z,1.7000000476837158
2023-03-16T01:42:00.000Z,1.7000000476837158
2023-03-16T01:42:15.000Z,1.600000023841858
2023-03-16T01:42:30.000Z,1.600000023841858
2023-03-16T01:42:45.000Z,1.5
2023-03-16T01:43:00.000Z,1.600000023841858
2023-03-16T01:43:15.000Z,1.5
2023-03-16T01:43:30.000Z,1.5
2023-03-16T01:43:45.000Z,1.600000023841858
2023-03-16T01:44:00.000Z,1.600000023841858
2023-03-16T01:44:15.000Z,1.600000023841858
2023-03-16T01:44:30.000Z,1.600000023841858
2023-03-16T01:44:45.000Z,1.7000000476837158
2023-03-16T01:45:00.000Z,1.7000000476837158
2023-03-16T01:45:15.000Z,1.7999999523162842
2023-03-16T01:45:30.000Z,1.7999999523162842
2023-03-16T01:45:45.000Z,1.7999999523162842
2023-03-16T01:46:00.000Z,1.7999999523162842
2023-03-16T01:46:15.000Z,1.7999999523162842
2023-03-16T01:46:30.000Z,1.7999999523162842
2023-03-16T01:46:45.000Z,1.7999999523162842
2023-03-16T01:47:00.000Z,1.7000000476837158
2023-03-16T01:47:15.000Z,1.7000000476837158
2023-03-16T01:47:30.000Z,1.7000000476837158
2023-03-16T01:47:45.000Z,1.7000000476837158
2023-03-16T01:48:00.000Z,1.600000023841858
2023-03-16T01:48:15.000Z,1.600000023841858
2023-03-16T01:48:30.000Z,1.600000023841858
2023-03-16T01:48:45.000Z,1.5
2023-03-16T01:49:00.000Z,1.399999976158142
2023-03-16T01:49:15.000Z,1.399999976158142
2023-03-16T01:49:30.000Z,1.399999976158142
2023-03-16T01:49:45.000Z,1.399999976158142
2023-03-16T01:50:00.000Z,1.2999999523162842
2023-03-16T01:50:15.000Z,1.2000000476837158
2023-03-16T01:50:30.000Z,1.2000000476837158
2023-03-16T01:50:45.000Z,1.2999999523162842
2023-03-16T01:51:00.000Z,1.100000023841858
2023-03-16T01:51:15.000Z,1.2000000476837158
2023-03-16T01:51:30.000Z,1.100000023841858
2023-03-16T01:51:45.000Z,1.100000023841858
2023-03-16T01:52:00.000Z,0.8999999761581421
2023-03-16T01:52:15.000Z,0.699999988079071
2023-03-16T01:52:30.000Z,0.800000011920929
2023-03-16T01:52:45.000Z,0.8999999761581421
2023-03-16T01:53:00.000Z,1.0
2023-03-16T01:53:15.000Z,0.8999999761581421
2023-03-16T01:53:30.000Z,0.800000011920929
2023-03-16T01:53:45.000Z,0.800000011920929
2023-03-16T01:54:00.000Z,0.699999988079071
2023-03-16T01:54:15.000Z,0.6000000238418579
2023-03-16T01:54:30.000Z,0.699999988079071
2023-03-16T01:54:44.000Z,0.699999988079071
2023-03-16T01:55:00.000Z,0.800000011920929
2023-03-16T01:55:15.000Z,0.800000011920929
2023-03-16T01:55:30.000Z,0.8999999761581421
2023-03-16T01:55:45.000Z,0.800000011920929
2023-03-16T01:56:00.000Z,0.800000011920929
2023-03-16T01:56:15.000Z,0.8999999761581421
2023-03-16T01:56:30.000Z,0.8999999761581421
2023-03-16T01:56:45.000Z,0.8999999761581421
2023-03-16T01:57:00.000Z,0.8999999761581421
2023-03-16T01:57:15.000Z,0.8999999761581421
2023-03-16T01:57:30.000Z,0.8999999761581421
2023-03-16T01:57:45.000Z,1.0
2023-03-16T01:58:00.000Z,0.8999999761581421
2023-03-16T01:58:15.000Z,0.8999999761581421
2023-03-16T01:58:30.000Z,0.8999999761581421
2023-03-16T01:58:45.000Z,0.8999999761581421
2023-03-16T01:59:00.000Z,0.800000011920929
2023-03-16T01:59:15.000Z,0.800000011920929
2023-03-16T01:59:30.000Z,0.800000011920929
2023-03-16T01:59:45.000Z,0.800000011920929
2023-03-16T02:00:00.000Z,0.800000011920929
2023-03-16T02:00:15.000Z,0.800000011920929
2023-03-16T02:00:30.000Z,0.800000011920929
2023-03-16T02:00:45.000Z,0.699999988079071
2023-03-16T02:01:00.000Z,0.699999988079071
2023-03-16T02:01:15.000Z,0.699999988079071
2023-03-16T02:01:30.000Z,0.699999988079071
2023-03-16T02:01:45.000Z,0.699999988079071
2023-03-16T02:02:00.000Z,0.6000000238418579
2023-03-16T02:02:14.000Z,0.5
2023-03-16T02:02:30.000Z,0.4000000059604645
2023-03-16T02:02:45.000Z,0.5
2023-03-16T02:03:00.000Z,0.6000000238418579
2023-03-16T02:03:15.000Z,0.6000000238418579
2023-03-16T02:03:30.000Z,0.699999988079071
2023-03-16T02:03:45.000Z,0.699999988079071
2023-03-16T02:04:00.000Z,0.699999988079071
2023-03-16T02:04:15.000Z,0.699999988079071
2023-03-16T02:04:30.000Z,0.699999988079071
2023-03-16T02:04:45.000Z,0.6000000238418579
2023-03-16T02:05:00.000Z,0.6000000238418579
2023-03-16T02:05:15.000Z,0.699999988079071
2023-03-16T02:05:30.000Z,0.699999988079071
2023-03-16T02:05:45.000Z,0.699999988079071
2023-03-16T02:06:00.000Z,0.699999988079071
2023-03-16T02:06:15.000Z,0.699999988079071
2023-03-16T02:06:30.000Z,0.699999988079071
2023-03-16T02:06:45.000Z,0.699999988079071
2023-03-16T02:07:00.000Z,0.699999988079071
2023-03-16T02:07:15.000Z,0.699999988079071
2023-03-16T02:07:30.000Z,0.699999988079071
2023-03-16T02:07:45.000Z,0.6000000238418579
2023-03-16T02:08:00.000Z,0.6000000238418579
2023-03-16T02:08:15.000Z,0.6000000238418579
2023-03-16T02:08:30.000Z,0.6000000238418579
2023-03-16T02:08:45.000Z,0.6000000238418579
2023-03-16T02:09:00.000Z,0.699999988079071
2023-03-16T02:09:15.000Z,0.699999988079071
2023-03-16T02:09:30.000Z,0.699999988079071
2023-03-16T02:09:45.000Z,0.699999988079071
2023-03-16T02:10:00.000Z,0.699999988079071
2023-03-16T02:10:15.000Z,0.6000000238418579
2023-03-16T02:10:30.000Z,0.6000000238418579
2023-03-16T02:10:45.000Z,0.699999988079071
2023-03-16T02:11:00.000Z,0.699999988079071
2023-03-16T02:11:15.000Z,0.699999988079071
2023-03-16T02:11:30.000Z,0.699999988079071
2023-03-16T02:11:45.000Z,0.699999988079071
2023-03-16T02:12:00.000Z,0.699999988079071
2023-03-16T02:12:15.000Z,0.800000011920929
2023-03-16T02:12:30.000Z,0.699999988079071
2023-03-16T02:12:45.000Z,0.699999988079071
2023-03-16T02:13:00.000Z,0.800000011920929
2023-03-16T02:13:15.000Z,0.699999988079071
2023-03-16T02:13:30.000Z,0.800000011920929
2023-03-16T02:13:45.000Z,0.800000011920929
2023-03-16T02:14:00.000Z,0.800000011920929
2023-03-16T02:14:15.000Z,0.800000011920929
2023-03-16T02:14:30.000Z,0.800000011920929
2023-03-16T02:14:45.000Z,0.800000011920929
2023-03-16T02:15:00.000Z,0.800000011920929
2023-03-16T02:15:15.000Z,0.8999999761581421
2023-03-16T02:15:30.000Z,0.8999999761581421
2023-03-16T02:15:45.000Z,1.0
2023-03-16T02:16:00.000Z,1.0
2023-03-16T02:16:15.000Z,1.0
2023-03-16T02:16:30.000Z,1.0
2023-03-16T02:16:45.000Z,1.0
2023-03-16T02:17:00.000Z,1.0
2023-03-16T02:17:15.000Z,1.0
2023-03-16T02:17:30.000Z,1.0
2023-03-16T02:17:45.000Z,1.0
2023-03-16T02:18:00.000Z,1.0
2023-03-16T02:18:15.000Z,1.0
2023-03-16T02:18:30.000Z,1.0
2023-03-16T02:18:45.000Z,1.0
2023-03-16T02:19:00.000Z,1.0
2023-03-16T02:19:15.000Z,0.8999999761581421
2023-03-16T02:19:30.000Z,0.8999999761581421
2023-03-16T02:19:45.000Z,0.8999999761581421
2023-03-16T02:20:00.000Z,0.8999999761581421
2023-03-16T02:20:15.000Z,0.8999999761581421
2023-03-16T02:20:30.000Z,0.8999999761581421
2023-03-16T02:20:45.000Z,1.0
2023-03-16T02:21:00.000Z,1.0
2023-03-16T02:21:15.000Z,1.0
2023-03-16T02:21:30.000Z,1.0
2023-03-16T02:21:45.000Z,1.0
2023-03-16T02:22:00.000Z,1.0
2023-03-16T02:22:15.000Z,0.8999999761581421
2023-03-16T02:22:30.000Z,1.0
2023-03-16T02:22:45.000Z,1.0
2023-03-16T02:23:00.000Z,1.0
2023-03-16T02:23:15.000Z,1.0
2023-03-16T02:23:30.000Z,1.0
2023-03-16T02:23:45.000Z,1.100000023841858
2023-03-16T02:24:00.000Z,1.100000023841858
2023-03-16T02:24:15.000Z,1.100000023841858
2023-03-16T02:24:30.000Z,1.100000023841858
2023-03-16T02:24:45.000Z,1.100000023841858
2023-03-16T02:24:59.000Z,1.100000023841858
2023-03-16T02:25:15.000Z,1.100000023841858
2023-03-16T02:25:30.000Z,1.2000000476837158
2023-03-16T02:25:45.000Z,1.2000000476837158
2023-03-16T02:26:00.000Z,1.2000000476837158
2023-03-16T02:26:15.000Z,1.2000000476837158
2023-03-16T02:26:30.000Z,1.2000000476837158
2023-03-16T02:26:45.000Z,1.2000000476837158